METAR Data
IDs: Format: Raw Decoded Include TAF

Data at: 1633 UTC 21 Sep 2018

KELY 211553Z AUTO 15003KT 10SM CLR 14/M09 A3029 RMK AO2 SLP197 T01391094
KELY 211453Z AUTO 16007KT 10SM CLR 07/M11 A3029 RMK AO2 SLP200 T00721106 53008
KELY 211353Z AUTO 18008KT 10SM CLR M01/M12 A3029 RMK AO2 SLP214 T10061117
KELY 211253Z AUTO 16013KT 10SM CLR 01/M12 A3026 RMK AO2 SLP186 T00111122
KELY 211053Z AUTO 17011KT 10SM CLR 02/M13 A3026 RMK AO2 SLP180 T00171128
KELY 210953Z AUTO 18011KT 10SM CLR 03/M14 A3025 RMK AO2 SLP175 T00281139
KELY 210853Z AUTO 17011KT 10SM CLR 02/M13 A3025 RMK AO2 SLP181 T00171133 51005
KELY 210753Z AUTO 17008KT 10SM CLR 03/M13 A3025 RMK AO2 SLP181 T00281133 402441011
KELY 210653Z AUTO 17008KT 10SM CLR 03/M14 A3024 RMK AO2 SLP178 T00331144
KELY 210553Z AUTO 17011KT 10SM CLR 07/M14 A3023 RMK AO2 SLP169 T00721139 10244 20067 51014
KELY 210453Z AUTO 18009KT 10SM CLR 07/M13 A3022 RMK AO2 SLP176 T00671128
KELY 210353Z AUTO 16009KT 10SM CLR 09/M14 A3020 RMK AO2 SLP173 T00891139
KELY 210253Z AUTO 34005KT 10SM CLR 14/M14 A3018 RMK AO2 SLP168 T01441144 53014
KELY 210153Z AUTO 32004KT 10SM CLR 17/M14 A3016 RMK AO2 SLP169 T01671144
KELY 210053Z AUTO 01009KT 10SM CLR 23/M13 A3014 RMK AO2 SLP147 T02281128
KELY 202353Z AUTO 36009KT 10SM CLR 24/M13 A3013 RMK AO2 SLP136 T02441133 10244 20183 56004
KELY 202253Z AUTO 33005KT 10SM CLR 24/M13 A3013 RMK AO2 SLP136 T02391128
KELY 202153Z AUTO 10SM CLR 23/M13 A3014 RMK AO2 SLP137 T02331133
KELY 202053Z AUTO 04010KT 10SM CLR 23/M13 A3015 RMK AO2 SLP147 T02281133 58012
KELY 201953Z AUTO 35006KT 10SM CLR 21/M13 A3016 RMK AO2 SLP153 T02111133
KELY 201853Z AUTO 02008KT 10SM CLR 21/M13 A3018 RMK AO2 SLP150 T02111128
KELY 201753Z AUTO 32008KT 10SM CLR 19/M11 A3019 RMK AO2 SLP159 T01891111 10194 21011 58001
KELY 201653Z AUTO 33003KT 10SM CLR 16/M11 A3019 RMK AO2 SLP149 T01561111
KELY 201553Z AUTO 17004KT 10SM CLR 12/M12 A3020 RMK AO2 SLP156 T01171117
KELY 201453Z AUTO 17010KT 10SM CLR 05/M13 A3019 RMK AO2 SLP174 T00501128 51020
KELY 201353Z AUTO 16009KT 10SM CLR M01/M14 A3017 RMK AO2 SLP166 T10061139
KELY 201253Z AUTO 17011KT 10SM CLR M01/M15 A3014 RMK AO2 SLP149 T10111150
KELY 201153Z AUTO 16011KT 10SM CLR 01/M14 A3012 RMK AO2 SLP135 T00111144 10061 20000 53010
KELY 201053Z AUTO 17012KT 10SM CLR 01/M15 A3010 RMK AO2 SLP126 T00111150
KELY 200953Z AUTO 17012KT 10SM CLR 02/M15 A3009 RMK AO2 SLP120 T00171150
KELY 200853Z AUTO 17008KT 10SM CLR 01/M15 A3008 RMK AO2 SLP119 T00061150 52009
KELY 200753Z AUTO 24006KT 10SM CLR 02/M17 A3007 RMK AO2 SLP115 T00171172 402560000
KELY 200653Z AUTO 00000KT 10SM CLR 05/M16 A3006 RMK AO2 SLP103 T00501156
KELY 200553Z AUTO 00000KT 10SM CLR 05/M17 A3005 RMK AO2 SLP101 T00501167 10239 20050 51025
KELY 200453Z AUTO 34005KT 10SM CLR 13/M14 A3004 RMK AO2 SLP086 T01281139